Dewitt, New York
Current Conditions -  °F | °C
As of 11:54 PM on Tuesday 25 Nov 2014 (Local Time) from KSYR Reporting Station
Overcast Overcast  
Wind Chill: 32°   Ceiling: 4000
Heat Index: 38°   Visibility: 10mi
Dew Point: 25°   Wind: 8mph
Humidity: 60%   Direction: 270°W
Pressure: 30.21"   Gusts: NA
Location:  43.0412°N, 76.074°W
Report Text: KSYR 260454Z 27007KT 10SM OVC040 03/M04 A3021 RMK AO2 SLP230 T00331039 401000028
Loading
Personal Weather Stations






























Interactive Weather Map New forecast layout! Learn more

10-Day Weather Forecast

Advertisements
Track Severe Weather on mobile